Time;durP1;ratioP1;P1;durP2;ratioP2;P2;SDS_P1;SDS_P2;PMS_P1;PMS_P2;Temp;Humidity;BMP_temperature;BMP_pressure;BME280_temperature;BME280_humidity;BME280_pressure;Samples;Min_cycle;Max_cycle;Signal;HPM_P1;HPM_P2
2022/11/02 00:00:20;;;;;;;33.10;19.03;;;;;;;14.83;71.18;100051.34;5058355;28;20223;-68
2022/11/02 00:02:47;;;;;;;31.67;17.07;;;;;;;14.82;70.85;100055.06;5071724;28;20199;-67
2022/11/02 00:05:14;;;;;;;29.40;18.50;;;;;;;14.80;71.45;100056.31;5071914;28;20253;-67
2022/11/02 00:07:41;;;;;;;32.40;19.97;;;;;;;14.78;71.47;100051.16;5071554;28;20732;-67
2022/11/02 00:10:09;;;;;;;34.27;20.20;;;;;;;14.73;71.08;100047.47;5071541;28;20218;-67
2022/11/02 00:12:36;;;;;;;30.97;20.93;;;;;;;14.63;71.71;100047.88;5068705;28;20596;-67
2022/11/02 00:15:06;;;;;;;33.43;20.33;;;;;;;14.56;71.71;100047.09;5051825;28;20236;-67
2022/11/02 00:17:34;;;;;;;41.97;20.23;;;;;;;14.58;71.91;100047.69;5071124;28;20196;-68
2022/11/02 00:20:01;;;;;;;29.80;19.40;;;;;;;14.49;71.45;100043.59;5071471;28;20566;-67
2022/11/02 00:22:28;;;;;;;35.37;19.23;;;;;;;14.48;72.08;100050.00;5075549;28;20257;-67
2022/11/02 00:24:55;;;;;;;33.77;18.03;;;;;;;14.46;72.45;100053.91;5075645;28;20288;-68
2022/11/02 00:27:23;;;;;;;25.90;16.03;;;;;;;14.41;71.80;100056.34;5075807;28;20192;-67
2022/11/02 00:29:50;;;;;;;30.17;16.33;;;;;;;14.32;71.98;100042.38;5063232;28;20258;-67
2022/11/02 00:32:18;;;;;;;35.17;16.73;;;;;;;14.29;72.12;100036.66;5055375;28;20781;-68
2022/11/02 00:34:45;;;;;;;32.90;18.33;;;;;;;14.29;72.21;100036.66;5055498;28;20193;-68
2022/11/02 00:37:12;;;;;;;37.07;16.37;;;;;;;14.30;72.24;100032.94;5055589;28;20193;-67
2022/11/02 00:39:38;;;;;;;26.70;16.50;;;;;;;14.28;72.17;100040.31;5055092;28;20652;-68
2022/11/02 00:42:05;;;;;;;31.73;17.97;;;;;;;14.25;72.17;100036.22;5055928;28;20266;-67
2022/11/02 00:44:32;;;;;;;28.63;19.53;;;;;;;14.20;72.57;100030.66;5055264;28;20192;-67
2022/11/02 00:46:59;;;;;;;39.07;19.10;;;;;;;14.14;72.63;100028.78;5055102;28;20230;-67
2022/11/02 00:49:27;;;;;;;35.10;19.00;;;;;;;14.12;72.69;100035.38;5054910;28;20557;-68
2022/11/02 00:51:54;;;;;;;26.97;17.03;;;;;;;14.08;72.54;100032.28;5055284;28;20193;-67
2022/11/02 00:54:20;;;;;;;32.70;17.67;;;;;;;14.05;72.79;100030.03;5054827;28;20729;-67
2022/11/02 00:56:47;;;;;;;27.93;17.50;;;;;;;14.03;73.42;100031.25;5055237;28;20205;-67
2022/11/02 00:59:14;;;;;;;31.33;18.70;;;;;;;13.96;73.05;100033.91;5055096;28;20188;-67
2022/11/02 01:01:46;;;;;;;30.23;17.03;;;;;;;13.87;73.38;100024.47;5055104;28;20196;-67
2022/11/02 01:04:12;;;;;;;25.50;16.73;;;;;;;13.82;73.66;100024.25;5055276;28;20211;-67
2022/11/02 01:06:41;;;;;;;28.47;18.20;;;;;;;13.79;73.78;100029.16;5054610;28;20789;-67
2022/11/02 01:09:09;;;;;;;26.70;17.73;;;;;;;13.79;73.81;100019.31;5054464;28;20698;-67
2022/11/02 01:11:36;;;;;;;32.00;17.70;;;;;;;13.80;73.55;100015.63;5055364;28;20282;-67
2022/11/02 01:14:03;;;;;;;34.50;18.33;;;;;;;13.80;73.86;100015.63;5069546;28;20185;-67
2022/11/02 01:16:30;;;;;;;32.07;19.67;;;;;;;13.75;73.79;100012.75;5064106;28;20230;-67
2022/11/02 01:18:58;;;;;;;36.73;22.07;;;;;;;13.70;73.69;99999.19;5054709;28;20656;-67
2022/11/02 01:21:26;;;;;;;43.07;25.43;;;;;;;13.67;74.04;100010.28;5054353;28;20668;-67
2022/11/02 01:23:55;;;;;;;47.33;24.90;;;;;;;13.65;74.17;100001.66;5054869;28;20196;-68
2022/11/02 01:26:22;;;;;;;44.13;25.23;;;;;;;13.62;74.24;100002.06;5054205;28;20274;-68
2022/11/02 01:28:48;;;;;;;45.77;26.77;;;;;;;13.62;74.23;100002.06;5054895;28;20184;-69
2022/11/02 01:31:15;;;;;;;36.73;23.73;;;;;;;13.62;73.99;100007.41;5054208;28;20192;-68
2022/11/02 01:33:44;;;;;;;32.73;21.03;;;;;;;13.45;74.69;100003.47;5054159;28;20242;-68
2022/11/02 01:36:12;;;;;;;33.53;20.07;;;;;;;13.38;74.99;100007.13;5054123;28;20288;-68
2022/11/02 01:38:39;;;;;;;38.17;20.90;;;;;;;13.41;75.57;99998.72;5054375;28;20193;-68
2022/11/02 01:41:08;;;;;;;40.10;20.50;;;;;;;13.42;74.74;100006.53;5053969;28;20789;-68
2022/11/02 01:43:36;;;;;;;37.87;19.80;;;;;;;13.37;75.07;100003.66;5054280;28;20250;-67
2022/11/02 01:46:07;;;;;;;38.13;21.20;;;;;;;13.36;75.25;99996.66;5054110;28;20223;-67
2022/11/02 01:48:36;;;;;;;41.93;22.20;;;;;;;13.35;74.98;100005.69;5055132;28;20230;-68
2022/11/02 01:51:06;;;;;;;36.00;21.70;;;;;;;13.34;75.52;100003.22;5053785;28;20242;-67
2022/11/02 01:53:35;;;;;;;38.10;20.60;;;;;;;13.35;75.44;100000.34;5054830;28;20193;-67
2022/11/02 01:56:02;;;;;;;34.67;22.30;;;;;;;13.34;75.21;99998.69;5053660;28;20638;-67
2022/11/02 01:58:33;;;;;;;36.47;22.20;;;;;;;13.29;74.90;100001.16;5054865;28;20196;-67
2022/11/02 02:01:00;;;;;;;40.03;24.13;;;;;;;13.22;75.13;99997.66;5054138;28;20279;-67
2022/11/02 02:03:31;;;;;;;35.93;22.70;;;;;;;13.15;75.67;100010.13;5053667;28;20758;-67
2022/11/02 02:06:01;;;;;;;38.67;22.77;;;;;;;13.14;75.62;99996.97;5053778;28;20259;-67
2022/11/02 02:08:29;;;;;;;33.60;22.77;;;;;;;13.24;75.05;100006.25;5054296;28;20302;-67
2022/11/02 02:10:56;;;;;;;36.07;22.43;;;;;;;13.30;74.49;99997.47;5053761;28;20246;-67
2022/11/02 02:13:25;;;;;;;39.37;22.47;;;;;;;13.35;74.66;100000.34;5063061;28;20672;-67
2022/11/02 02:16:06;;;;;;;42.27;23.43;;;;;;;13.29;74.93;99997.66;5068114;28;20623;-67
2022/11/02 02:18:38;;;;;;;40.13;23.00;;;;;;;13.24;74.88;100006.25;5053819;28;20264;-67
2022/11/02 02:21:17;;;;;;;39.43;23.77;;;;;;;13.23;75.32;100001.16;5053502;28;20612;-67
2022/11/02 02:24:14;;;;;;;36.27;22.97;;;;;;;13.28;74.60;99994.16;5054104;28;20188;-67
2022/11/02 02:27:09;;;;;;;43.13;24.27;;;;;;;13.25;74.91;99989.25;5053397;28;20303;-67
2022/11/02 02:29:54;;;;;;;37.73;23.20;;;;;;;13.19;74.89;99990.03;5053515;28;20250;-67
2022/11/02 02:32:28;;;;;;;38.87;23.63;;;;;;;13.10;75.66;99995.75;5053869;28;20188;-67
2022/11/02 02:34:58;;;;;;;42.90;23.13;;;;;;;13.07;75.54;99990.81;5053305;28;20283;-67
2022/11/02 02:37:28;;;;;;;41.40;23.07;;;;;;;13.15;75.29;99996.78;5053001;28;20661;-68
2022/11/02 02:40:01;;;;;;;38.80;22.40;;;;;;;13.17;75.43;99999.25;5053661;28;20191;-67
2022/11/02 02:42:32;;;;;;;37.93;21.90;;;;;;;13.22;75.07;99997.66;5053530;28;20220;-67
2022/11/02 02:45:08;;;;;;;33.67;21.30;;;;;;;13.26;75.13;100001.56;5052871;28;20228;-67
2022/11/02 02:47:39;;;;;;;34.50;21.03;;;;;;;13.29;74.80;100005.66;5053395;28;20246;-66
2022/11/02 02:50:14;;;;;;;42.33;22.43;;;;;;;13.28;74.96;100007.50;5052757;28;20184;-67
2022/11/02 02:52:42;;;;;;;38.50;21.57;;;;;;;13.25;74.84;99999.91;5053299;28;20243;-67
2022/11/02 02:55:16;;;;;;;33.07;21.57;;;;;;;13.18;75.57;99998.22;5052541;28;20259;-67
2022/11/02 02:57:44;;;;;;;36.47;20.13;;;;;;;13.19;75.56;99999.91;5053096;28;20246;-67
2022/11/02 03:00:16;;;;;;;34.37;20.00;;;;;;;13.17;75.59;99996.59;5051584;28;20626;-67
2022/11/02 03:02:59;;;;;;;35.47;19.43;;;;;;;13.13;75.50;100001.50;5051914;28;20544;-67
2022/11/02 03:05:30;;;;;;;27.73;17.87;;;;;;;13.07;76.19;99991.63;5053121;28;20593;-67
2022/11/02 03:08:00;;;;;;;28.83;18.40;;;;;;;13.04;75.94;99994.72;5052428;28;20611;-67
2022/11/02 03:10:32;;;;;;;26.13;16.23;;;;;;;12.98;76.14;99990.16;5052447;28;20283;-68
2022/11/02 03:13:10;;;;;;;33.87;15.97;;;;;;;12.93;76.47;99981.06;5059264;28;20223;-68
2022/11/02 03:15:41;;;;;;;21.03;14.53;;;;;;;12.89;76.70;99978.00;5068953;28;20218;-68
2022/11/02 03:18:17;;;;;;;25.77;15.83;;;;;;;12.85;77.25;99986.59;5052350;28;20276;-68
2022/11/02 03:20:55;;;;;;;27.80;15.07;;;;;;;12.83;76.51;99984.09;5052877;28;20184;-67
2022/11/02 03:23:29;;;;;;;23.43;14.30;;;;;;;12.78;77.90;99985.75;5052591;28;20252;-67
2022/11/02 03:26:02;;;;;;;23.47;14.40;;;;;;;12.63;77.62;99972.56;5052353;28;20219;-67
2022/11/02 03:28:45;;;;;;;24.77;13.63;;;;;;;12.55;77.94;99986.03;5052094;28;20681;-67
2022/11/02 03:31:19;;;;;;;22.27;13.60;;;;;;;12.44;78.44;99986.59;5052801;28;20192;-67
2022/11/02 03:33:54;;;;;;;24.67;13.63;;;;;;;12.34;78.29;99983.47;5052478;28;20274;-67
2022/11/02 03:36:27;;;;;;;27.37;14.13;;;;;;;12.33;78.70;99987.13;5052425;28;20249;-68
2022/11/02 03:38:58;;;;;;;25.50;13.37;;;;;;;12.28;78.89;99981.56;5052039;28;20183;-67
2022/11/02 03:41:26;;;;;;;23.90;13.17;;;;;;;12.18;79.40;99981.09;5052088;28;20194;-67
2022/11/02 03:43:59;;;;;;;22.73;13.00;;;;;;;12.18;79.19;99989.09;5052238;28;20261;-67
2022/11/02 03:46:29;;;;;;;19.20;12.90;;;;;;;12.16;79.63;99990.28;5052093;28;20268;-67
2022/11/02 03:48:56;;;;;;;24.30;13.23;;;;;;;12.06;79.86;99987.97;5053047;28;20603;-68
2022/11/02 03:51:25;;;;;;;19.50;12.57;;;;;;;12.00;80.03;99986.06;5051795;28;20203;-67
2022/11/02 03:53:58;;;;;;;22.63;14.10;;;;;;;11.89;80.65;99989.25;5052410;28;20203;-67
2022/11/02 03:56:30;;;;;;;22.43;13.40;;;;;;;11.90;80.30;99993.56;5051655;28;20250;-68
2022/11/02 03:58:57;;;;;;;22.07;13.87;;;;;;;11.92;80.55;99994.19;5052343;28;20240;-67
2022/11/02 04:01:27;;;;;;;30.23;14.30;;;;;;;11.98;80.30;99995.25;5051941;28;20200;-67
2022/11/02 04:03:55;;;;;;;17.17;13.40;;;;;;;11.97;80.06;99997.09;5051993;28;20198;-68
2022/11/02 04:06:22;;;;;;;25.10;13.93;;;;;;;11.90;79.39;99993.56;5051913;28;20227;-68
2022/11/02 04:08:49;;;;;;;21.50;14.20;;;;;;;11.83;79.82;99997.16;5051944;28;20204;-67
2022/11/02 04:16:44;;;;;;;23.77;13.63;;;;;;;11.74;79.93;99991.16;5058813;28;20270;-68
2022/11/02 04:19:26;;;;;;;28.83;13.97;;;;;;;11.68;79.75;100005.22;5051566;28;20190;-67
2022/11/02 04:27:22;;;;;;;26.43;13.70;;;;;;;11.64;79.46;100000.50;5052011;28;20263;-67
2022/11/02 04:29:49;;;;;;;23.30;12.70;;;;;;;11.55;79.91;100006.94;5051994;28;20225;-67
2022/11/02 04:33:31;;;;;;;28.23;13.27;;;;;;;11.49;80.26;99992.53;5051878;28;20272;-68
2022/11/02 04:35:04;;;;;;;21.70;12.00;;;;;;;11.47;80.65;99988.44;5051299;28;20195;-70
2022/11/02 04:40:16;;;;;;;21.93;12.37;;;;;;;11.33;81.00;99987.47;5051173;28;20670;-68
2022/11/02 04:42:46;;;;;;;27.83;13.00;;;;;;;11.26;80.95;99981.25;5051453;28;20193;-68
2022/11/02 04:45:13;;;;;;;30.50;13.10;;;;;;;11.19;81.29;99984.84;5051351;28;20194;-68
2022/11/02 04:47:39;;;;;;;27.50;12.60;;;;;;;11.19;81.64;99984.84;5051378;28;20225;-68
2022/11/02 04:50:08;;;;;;;20.87;11.33;;;;;;;11.16;81.72;99985.22;5051802;28;20278;-67
2022/11/02 04:52:35;;;;;;;27.97;11.93;;;;;;;11.20;81.60;99982.00;5051126;28;20223;-67
2022/11/02 04:55:01;;;;;;;21.97;11.90;;;;;;;11.26;81.97;99983.91;5051506;28;20250;-66
2022/11/02 04:57:28;;;;;;;30.87;12.07;;;;;;;11.39;81.64;99983.22;5051457;28;20199;-67
2022/11/02 04:59:55;;;;;;;15.33;11.63;;;;;;;11.48;81.66;99990.91;5051351;28;20195;-68
2022/11/02 05:02:21;;;;;;;29.90;11.77;;;;;;;11.58;80.54;99996.72;5061270;28;20270;-67
2022/11/02 05:04:48;;;;;;;33.53;12.57;;;;;;;11.64;80.53;99998.63;5056621;28;20210;-66
2022/11/02 05:07:16;;;;;;;26.47;12.13;;;;;;;11.69;79.90;99992.75;5072485;28;20279;-65
2022/11/02 05:09:43;;;;;;;24.37;11.30;;;;;;;11.70;80.10;99999.72;5074884;28;20190;-67
2022/11/02 05:12:09;;;;;;;23.60;10.50;;;;;;;11.57;79.80;99995.06;5073111;28;20235;-68
2022/11/02 05:14:36;;;;;;;18.97;11.47;;;;;;;11.48;80.31;99996.22;5054752;28;20673;-66
2022/11/02 05:17:04;;;;;;;24.87;11.20;;;;;;;11.40;80.76;99999.00;5070131;28;20262;-67
2022/11/02 05:19:30;;;;;;;20.53;11.37;;;;;;;11.40;81.51;99996.34;5074739;28;20255;-67
2022/11/02 05:21:57;;;;;;;20.83;11.80;;;;;;;11.31;81.98;100000.09;5074539;28;20194;-67
2022/11/02 05:24:25;;;;;;;27.93;12.27;;;;;;;11.47;81.58;99997.22;5074882;28;20262;-70
2022/11/02 05:26:52;;;;;;;23.70;11.33;;;;;;;11.71;81.28;99996.88;5071848;28;20231;-69
2022/11/02 05:29:18;;;;;;;22.20;12.23;;;;;;;11.94;79.76;100001.97;5066842;28;20191;-70
2022/11/02 05:31:45;;;;;;;37.73;16.40;;;;;;;12.13;78.95;100001.31;5053774;28;20253;-71
2022/11/02 05:34:12;;;;;;;30.93;16.80;;;;;;;12.35;78.48;100005.56;5054248;28;20235;-70
2022/11/02 05:36:38;;;;;;;43.83;12.07;;;;;;;12.59;77.44;100008.63;5054461;28;20199;-71
2022/11/02 05:39:05;;;;;;;21.67;9.90;;;;;;;12.78;76.15;100002.56;5054811;28;20202;-69
2022/11/02 05:41:34;;;;;;;28.70;10.20;;;;;;;12.96;74.51;100007.34;5069213;28;20673;-71
2022/11/02 05:44:01;;;;;;;27.73;10.13;;;;;;;13.19;74.27;100011.38;5073662;28;20197;-72
2022/11/02 05:46:27;;;;;;;25.23;11.03;;;;;;;13.38;74.10;100004.44;5072965;28;20706;-70
2022/11/02 05:48:54;;;;;;;48.87;10.47;;;;;;;13.66;72.33;100007.78;5060375;28;20196;-73
2022/11/02 05:51:21;;;;;;;22.30;8.17;;;;;;;14.11;83.16;100007.00;5073063;28;20211;-66
2022/11/02 05:53:47;;;;;;;21.40;8.70;;;;;;;15.30;78.06;100021.56;5058165;28;20547;-65
2022/11/02 05:56:14;;;;;;;23.97;9.57;;;;;;;16.18;75.80;100014.41;5053882;28;20258;-65
2022/11/02 05:58:42;;;;;;;31.23;10.87;;;;;;;17.03;61.60;100043.91;5053395;28;20193;-69
2022/11/02 06:01:10;;;;;;;20.60;12.87;;;;;;;17.26;59.92;100035.97;5060540;28;20257;-71
2022/11/02 06:03:37;;;;;;;33.77;13.17;;;;;;;17.23;58.84;100033.75;5055301;28;20266;-71
2022/11/02 06:06:06;;;;;;;39.07;11.90;;;;;;;17.23;58.89;100033.75;5053840;28;20227;-73
2022/11/02 06:08:33;;;;;;;26.73;11.50;;;;;;;17.28;58.87;100026.66;5053470;28;20616;-72
2022/11/02 06:11:04;;;;;;;39.20;11.67;;;;;;;17.31;57.88;100034.25;5053157;28;20258;-70
2022/11/02 06:13:31;;;;;;;25.03;10.10;;;;;;;17.21;58.22;100025.09;5064207;28;20191;-68
2022/11/02 06:16:00;;;;;;;58.33;12.50;;;;;;;17.23;57.83;100023.00;5066828;28;20189;-70
2022/11/02 06:18:27;;;;;;;33.10;9.97;;;;;;;17.35;58.60;100026.56;5053271;28;20195;-71
2022/11/02 06:20:56;;;;;;;26.03;9.37;;;;;;;17.52;60.24;100027.63;5054366;28;20196;-71
2022/11/02 06:23:23;;;;;;;49.23;10.63;;;;;;;17.76;58.81;100032.03;5053433;28;20709;-71
2022/11/02 06:25:53;;;;;;;24.47;9.20;;;;;;;17.70;57.32;100038.31;5053928;28;20671;-71
2022/11/02 06:28:21;;;;;;;32.60;8.77;;;;;;;17.76;58.51;100032.81;5052858;28;20200;-72
2022/11/02 06:30:48;;;;;;;30.90;9.37;;;;;;;18.01;56.88;100038.84;5053097;28;20203;-68
2022/11/02 06:33:16;;;;;;;19.63;8.57;;;;;;;19.02;64.78;100020.53;5053241;28;20211;-68
2022/11/02 06:35:45;;;;;;;19.97;8.43;;;;;;;19.93;54.57;100046.31;5053841;28;20199;-69
2022/11/02 06:38:12;;;;;;;13.77;8.00;;;;;;;20.53;52.47;100036.56;5052901;28;20663;-68
2022/11/02 06:40:39;;;;;;;29.17;9.03;;;;;;;21.35;53.08;100037.44;5053154;28;20258;-67
2022/11/02 06:43:06;;;;;;;20.60;9.20;;;;;;;21.89;53.92;100039.13;5052773;28;20200;-67
2022/11/02 06:45:32;;;;;;;21.70;8.37;;;;;;;22.43;48.50;100042.59;5053113;28;20242;-66
2022/11/02 06:47:59;;;;;;;28.07;8.23;;;;;;;22.79;45.65;100045.28;5052421;28;20798;-68
2022/11/02 06:50:28;;;;;;;26.93;9.07;;;;;;;23.34;46.16;100042.06;5065066;28;20192;-67
2022/11/02 06:52:55;;;;;;;23.87;8.83;;;;;;;23.84;45.04;100045.75;5067926;28;20279;-67
2022/11/02 06:55:22;;;;;;;22.57;7.90;;;;;;;24.23;42.32;100038.78;5072141;28;20193;-66
2022/11/02 06:57:48;;;;;;;13.83;8.13;;;;;;;24.63;41.00;100041.47;5053382;28;20220;-68
2022/11/02 07:00:17;;;;;;;15.87;8.43;;;;;;;24.94;39.83;100037.59;5052509;28;20195;-68
2022/11/02 07:02:44;;;;;;;16.70;7.67;;;;;;;25.19;37.10;100033.19;5052548;28;20654;-70
2022/11/02 07:05:11;;;;;;;21.33;8.20;;;;;;;25.53;37.46;100031.41;5061463;28;20975;-67
2022/11/02 07:07:39;;;;;;;17.03;8.10;;;;;;;25.52;34.85;100032.53;5072566;28;20238;-68
2022/11/02 07:10:09;;;;;;;18.73;7.47;;;;;;;25.72;36.50;100030.47;5072631;28;20200;-69
2022/11/02 07:12:36;;;;;;;27.43;8.53;;;;;;;25.89;35.16;100033.63;5069472;28;20655;-68
2022/11/02 07:15:03;;;;;;;14.80;7.63;;;;;;;26.11;36.21;100025.06;5052206;28;20223;-70
2022/11/02 07:17:29;;;;;;;20.00;7.67;;;;;;;26.06;34.89;100022.38;5071303;28;20200;-69
2022/11/02 07:19:57;;;;;;;20.77;7.83;;;;;;;25.99;33.80;100019.16;5072129;28;20246;-68
2022/11/02 07:22:25;;;;;;;17.10;7.57;;;;;;;25.97;34.66;100014.00;5060577;28;20203;-67
2022/11/02 07:24:53;;;;;;;50.93;9.70;;;;;;;25.92;33.65;100015.94;5052070;28;20201;-67
2022/11/02 07:27:19;;;;;;;22.70;8.37;;;;;;;25.72;35.77;100005.97;5052286;28;20366;-69
2022/11/02 07:29:46;;;;;;;95.07;11.83;;;;;;;25.45;34.01;99997.47;5057736;28;20195;-69
2022/11/02 07:32:13;;;;;;;19.70;6.23;;;;;;;25.29;34.25;100005.97;5055708;28;20279;-71
2022/11/02 07:34:41;;;;;;;20.33;6.53;;;;;;;24.90;36.69;100003.91;5066047;28;20195;-68
2022/11/02 07:37:07;;;;;;;14.33;6.77;;;;;;;24.83;37.10;99997.94;5068687;28;20663;-69
2022/11/02 07:39:34;;;;;;;12.73;6.23;;;;;;;24.67;36.99;99999.06;5050122;28;20228;-69
2022/11/02 07:42:02;;;;;;;35.27;8.47;;;;;;;24.36;35.98;99989.34;5049778;28;20688;-67
2022/11/02 07:44:29;;;;;;;11.63;6.67;;;;;;;24.34;36.56;99988.78;5050059;28;20223;-70
2022/11/02 07:46:56;;;;;;;13.23;6.10;;;;;;;24.01;36.63;99989.34;5051366;28;20694;-67
2022/11/02 07:49:23;;;;;;;34.43;8.30;;;;;;;23.94;37.42;99977.94;5051992;28;20548;-67
2022/11/02 07:51:49;;;;;;;29.20;7.10;;;;;;;23.63;37.34;99983.56;5051997;28;20239;-67
2022/11/02 07:54:16;;;;;;;15.33;6.60;;;;;;;23.46;39.02;99977.56;5051931;28;20247;-70
2022/11/02 07:56:44;;;;;;;23.47;6.90;;;;;;;23.67;38.30;99969.22;5055638;28;20742;-68
2022/11/02 07:59:12;;;;;;;18.63;6.00;;;;;;;24.03;39.65;99965.47;5052266;28;20204;-68
2022/11/02 08:01:39;;;;;;;28.83;7.53;;;;;;;24.00;36.91;99962.47;5052039;28;20198;-67
2022/11/02 08:04:06;;;;;;;12.67;5.97;;;;;;;23.65;37.30;99967.84;5051575;28;20202;-69
2022/11/02 08:06:34;;;;;;;13.40;6.10;;;;;;;23.65;37.06;99967.84;5051316;28;20193;-68
2022/11/02 08:09:02;;;;;;;13.17;5.77;;;;;;;23.77;37.29;99960.28;5051463;28;20202;-70
2022/11/02 08:11:28;;;;;;;23.33;5.90;;;;;;;23.88;36.59;99961.88;5051784;28;20592;-68
2022/11/02 08:13:55;;;;;;;18.10;6.40;;;;;;;23.98;36.30;99951.88;5066082;28;20185;-65
2022/11/02 08:16:23;;;;;;;16.37;6.00;;;;;;;23.82;36.69;99955.66;5061720;28;20247;-68
2022/11/02 08:18:50;;;;;;;48.87;9.63;;;;;;;23.83;36.88;99943.72;5051376;28;20661;-67
2022/11/02 08:21:16;;;;;;;19.50;5.87;;;;;;;23.60;37.07;99949.66;5051874;28;20695;-69
2022/11/02 08:23:43;;;;;;;22.07;5.87;;;;;;;23.78;37.71;99946.44;5054246;28;20192;-69
2022/11/02 08:26:10;;;;;;;17.30;5.67;;;;;;;23.75;36.94;99936.13;5061194;28;20198;-70
2022/11/02 08:28:39;;;;;;;25.47;6.43;;;;;;;24.06;37.85;99934.25;5062580;28;20696;-70
2022/11/02 08:31:06;;;;;;;21.67;6.53;;;;;;;24.52;35.80;99931.19;5051397;28;20666;-70
2022/11/02 08:33:34;;;;;;;27.17;6.17;;;;;;;24.95;35.73;99930.50;5051711;28;20243;-68
2022/11/02 08:36:02;;;;;;;19.97;6.30;;;;;;;25.06;34.16;99925.81;5051595;28;20195;-67
2022/11/02 08:38:29;;;;;;;25.63;6.20;;;;;;;25.21;33.88;99916.75;5056447;28;20243;-71
2022/11/02 08:40:56;;;;;;;16.20;5.93;;;;;;;25.41;34.52;99913.94;5058140;28;20305;-68
2022/11/02 08:43:23;;;;;;;22.37;6.87;;;;;;;25.65;33.71;99917.59;5065875;28;20195;-68
2022/11/02 08:45:50;;;;;;;17.93;5.63;;;;;;;25.94;33.14;99913.03;5054883;28;20228;-67
2022/11/02 08:48:16;;;;;;;13.57;6.33;;;;;;;25.96;32.67;99908.13;5054802;28;20277;-67
2022/11/02 08:50:44;;;;;;;20.97;6.43;;;;;;;26.02;33.35;99901.50;5054920;28;20243;-68
2022/11/02 08:53:11;;;;;;;15.47;6.93;;;;;;;25.87;32.47;99901.63;5055236;28;20192;-67
2022/11/02 08:55:38;;;;;;;27.70;7.17;;;;;;;25.61;33.69;99897.47;5054689;28;20676;-69
2022/11/02 08:58:05;;;;;;;18.70;6.50;;;;;;;25.85;33.10;99890.22;5063631;28;20627;-67
2022/11/02 09:00:34;;;;;;;21.67;7.90;;;;;;;26.07;32.26;99896.00;5074238;28;20683;-67
2022/11/02 09:03:03;;;;;;;24.40;8.00;;;;;;;25.96;32.06;99894.50;5074853;28;20231;-67
2022/11/02 09:05:31;;;;;;;14.50;7.17;;;;;;;25.97;32.41;99894.19;5062102;28;20235;-67
2022/11/02 09:08:01;;;;;;;23.80;8.40;;;;;;;26.17;32.70;99885.84;5058539;28;20220;-67
2022/11/02 09:10:30;;;;;;;31.03;8.33;;;;;;;26.44;32.26;99882.53;5054621;28;20192;-67
2022/11/02 09:12:59;;;;;;;25.57;8.37;;;;;;;26.72;31.73;99878.97;5060881;28;20687;-67
2022/11/02 09:15:25;;;;;;;31.90;9.23;;;;;;;26.93;31.63;99869.41;5072710;28;20633;-68
2022/11/02 09:17:52;;;;;;;22.40;8.50;;;;;;;27.06;30.65;99877.69;5054701;28;20200;-67
2022/11/02 09:20:20;;;;;;;22.43;7.93;;;;;;;27.12;31.02;99872.97;5054644;28;20193;-68
2022/11/02 09:22:47;;;;;;;18.37;7.67;;;;;;;27.11;30.25;99871.38;5055031;28;20738;-68
2022/11/02 09:25:15;;;;;;;28.37;7.87;;;;;;;27.02;30.20;99868.47;5074386;28;20241;-67
2022/11/02 09:27:43;;;;;;;32.07;7.77;;;;;;;27.03;30.60;99861.13;5073785;28;20651;-68
2022/11/02 09:30:11;;;;;;;22.77;7.83;;;;;;;27.23;30.12;99856.19;5059291;28;20189;-68
2022/11/02 09:32:38;;;;;;;27.30;8.00;;;;;;;27.39;29.70;99852.13;5054011;28;20196;-68
2022/11/02 09:35:08;;;;;;;25.93;7.93;;;;;;;27.44;29.93;99837.59;5069618;28;20192;-67
2022/11/02 09:37:34;;;;;;;26.87;7.50;;;;;;;27.67;29.57;99837.47;5072799;28;20204;-67
2022/11/02 09:40:02;;;;;;;21.13;7.93;;;;;;;27.82;29.49;99833.69;5072568;28;20194;-68
2022/11/02 09:42:39;;;;;;;30.03;8.83;;;;;;;27.94;28.95;99831.28;5072299;28;20663;-68
2022/11/02 09:45:12;;;;;;;22.67;7.10;;;;;;;27.93;28.69;99819.53;5070832;28;20233;-67
2022/11/02 09:47:44;;;;;;;29.77;8.03;;;;;;;28.10;28.61;99816.22;5072814;28;20260;-68
2022/11/02 09:50:19;;;;;;;19.10;6.50;;;;;;;28.29;28.28;99811.47;5071742;28;20393;-67
2022/11/02 09:52:51;;;;;;;22.60;6.57;;;;;;;28.39;28.81;99812.09;5073147;28;20639;-68
2022/11/02 09:55:22;;;;;;;18.87;6.37;;;;;;;28.55;28.24;99809.88;5073856;28;20192;-68
2022/11/02 09:57:57;;;;;;;30.50;7.43;;;;;;;28.81;27.58;99800.81;5074177;28;20249;-69
2022/11/02 10:00:26;;;;;;;16.93;5.70;;;;;;;28.92;27.25;99801.38;5068754;28;20192;-68
2022/11/02 10:03:05;;;;;;;22.43;6.07;;;;;;;29.00;27.27;99804.22;5053810;28;20196;-68
2022/11/02 10:05:41;;;;;;;20.93;6.00;;;;;;;29.05;27.65;99795.09;5066268;28;20249;-67
2022/11/02 10:08:24;;;;;;;24.70;6.37;;;;;;;29.07;27.01;99792.84;5074129;28;20218;-68
2022/11/02 10:11:03;;;;;;;17.90;6.10;;;;;;;29.13;27.02;99788.88;5073837;28;20188;-69
2022/11/02 10:13:38;;;;;;;17.63;5.90;;;;;;;29.23;27.01;99783.13;5062772;28;20242;-69
2022/11/02 10:16:10;;;;;;;17.33;5.80;;;;;;;29.15;26.58;99778.41;5061856;28;20184;-69
2022/11/02 10:18:40;;;;;;;24.70;5.80;;;;;;;29.09;26.79;99785.13;5073174;28;20660;-69
2022/11/02 10:21:10;;;;;;;16.07;5.33;;;;;;;29.02;26.72;99743.72;5073542;28;20242;-68
2022/11/02 10:23:44;;;;;;;18.40;5.30;;;;;;;29.43;26.60;99770.91;5071805;28;20250;-71
2022/11/02 10:26:17;;;;;;;31.67;6.87;;;;;;;29.55;26.26;99779.34;5052885;28;20196;-69
2022/11/02 10:28:49;;;;;;;20.83;5.90;;;;;;;29.69;26.06;99764.47;5057836;28;20295;-70
2022/11/02 10:31:25;;;;;;;21.13;5.40;;;;;;;29.72;25.90;99763.84;5070802;28;20196;-70
2022/11/02 10:33:53;;;;;;;26.57;6.00;;;;;;;29.81;26.45;99759.22;5070533;28;20199;-69
2022/11/02 10:36:32;;;;;;;10.40;5.27;;;;;;;29.92;25.65;99751.53;5071269;28;20202;-70
2022/11/02 10:39:09;;;;;;;20.60;5.90;;;;;;;30.12;25.80;99750.94;5054685;28;20196;-70
2022/11/02 10:41:51;;;;;;;13.67;4.90;;;;;;;30.32;25.06;99740.22;5051704;28;20242;-69
2022/11/02 10:44:47;;;;;;;35.00;6.20;;;;;;;30.38;25.12;99733.47;5053641;28;20200;-69
2022/11/02 10:47:17;;;;;;;19.17;5.10;;;;;;;29.98;23.14;99729.16;5050572;28;20722;-70
2022/11/02 10:50:12;;;;;;;26.97;4.97;;;;;;;29.80;23.28;99730.19;5050620;28;20212;-70
2022/11/02 10:52:42;;;;;;;14.97;4.40;;;;;;;29.83;22.96;99731.50;5051108;28;20185;-71
2022/11/02 10:55:15;;;;;;;18.27;4.57;;;;;;;29.79;22.34;99720.38;5050986;28;20192;-72
2022/11/02 10:57:42;;;;;;;19.20;4.90;;;;;;;29.93;22.73;99720.25;5051012;28;20200;-69
2022/11/02 11:00:25;;;;;;;14.43;4.63;;;;;;;29.59;22.70;99704.50;5050512;28;20668;-69
2022/11/02 11:03:06;;;;;;;11.30;3.97;;;;;;;29.48;22.97;99694.09;5052558;28;20656;-69
2022/11/02 11:05:34;;;;;;;14.77;3.83;;;;;;;29.75;22.43;99699.38;5052237;28;20646;-69
2022/11/02 11:08:02;;;;;;;21.00;4.03;;;;;;;29.70;22.59;99697.63;5052210;28;20216;-68
2022/11/02 11:10:35;;;;;;;21.07;4.10;;;;;;;29.75;22.28;99696.66;5052487;28;20196;-69
2022/11/02 11:13:03;;;;;;;25.27;4.50;;;;;;;29.58;22.54;99691.94;5059626;28;20216;-69
2022/11/02 11:15:33;;;;;;;17.07;4.37;;;;;;;29.58;22.59;99691.94;5069459;28;20627;-69
2022/11/02 11:18:00;;;;;;;16.97;3.77;;;;;;;29.63;22.72;99689.03;5052303;28;20201;-69
2022/11/02 11:20:38;;;;;;;19.67;4.10;;;;;;;29.58;22.23;99685.63;5052785;28;20189;-69
2022/11/02 11:23:15;;;;;;;20.90;4.70;;;;;;;29.57;22.87;99678.50;5052666;28;20600;-69
2022/11/02 11:25:42;;;;;;;21.03;4.13;;;;;;;29.65;22.31;99678.59;5052289;28;20228;-69
2022/11/02 11:28:24;;;;;;;11.27;4.13;;;;;;;29.71;22.68;99671.84;5051963;28;20594;-69
2022/11/02 11:31:03;;;;;;;25.73;5.33;;;;;;;29.88;22.42;99676.59;5052520;28;20184;-69
2022/11/02 11:33:32;;;;;;;12.67;4.10;;;;;;;29.83;21.92;99671.22;5051976;28;20181;-70
2022/11/02 11:36:00;;;;;;;11.97;3.73;;;;;;;29.77;22.26;99670.59;5052221;28;20224;-70
2022/11/02 11:38:27;;;;;;;10.70;3.90;;;;;;;29.77;22.01;99665.09;5052467;28;20250;-70
2022/11/02 11:40:57;;;;;;;25.30;4.17;;;;;;;29.77;22.31;99656.88;5051586;28;20635;-69